Time;durP1;ratioP1;P1;durP2;ratioP2;P2;SDS_P1;SDS_P2;PMS_P1;PMS_P2;Temp;Humidity;BMP_temperature;BMP_pressure;BME280_temperature;BME280_humidity;BME280_pressure;Samples;Min_cycle;Max_cycle;Signal;HPM_P1;HPM_P2
2022/06/02 00:02:32;;;;;;;7.00;4.08;;;;;;;15.10;65.54;99088.85;1668247;84;21051;-61
2022/06/02 00:05:50;;;;;;;5.75;4.00;;;;;;;15.05;66.82;99088.36;1693871;84;21054;-60
2022/06/02 00:08:26;;;;;;;8.68;5.15;;;;;;;15.06;67.36;99104.63;1646013;86;21480;-61
2022/06/02 00:11:06;;;;;;;9.68;4.65;;;;;;;15.08;68.25;99119.91;1657027;84;21051;-60
2022/06/02 00:13:46;;;;;;;12.53;5.17;;;;;;;15.06;68.90;99110.38;1613748;86;21601;-61
2022/06/02 00:16:17;;;;;;;8.75;5.03;;;;;;;15.06;67.88;99107.27;1651041;86;21714;-60
2022/06/02 00:18:57;;;;;;;8.50;5.25;;;;;;;14.91;70.36;99113.23;1653018;86;21036;-62
2022/06/02 00:21:42;;;;;;;8.20;5.40;;;;;;;14.90;69.99;99111.56;1656493;86;21099;-62
2022/06/02 00:24:42;;;;;;;6.72;4.75;;;;;;;14.83;70.08;99126.23;1656044;86;21681;-63
2022/06/02 00:27:19;;;;;;;7.42;4.40;;;;;;;14.78;72.68;99140.28;1652776;86;21044;-63
2022/06/02 00:30:03;;;;;;;6.00;4.35;;;;;;;14.78;72.27;99132.34;1661457;85;21079;-62
2022/06/02 00:32:46;;;;;;;8.00;4.20;;;;;;;14.80;76.08;99137.03;1650151;86;21044;-64
2022/06/02 00:35:30;;;;;;;8.28;4.45;;;;;;;14.76;73.41;99109.12;1661245;85;22019;-64
2022/06/02 00:38:19;;;;;;;5.47;4.03;;;;;;;14.66;74.38;99086.48;1660396;85;21806;-63
2022/06/02 00:40:46;;;;;;;9.03;4.40;;;;;;;14.68;74.55;99081.91;1676694;84;21015;-64
2022/06/02 00:43:33;;;;;;;9.20;4.78;;;;;;;14.69;73.10;99073.48;1692320;84;21039;-63
2022/06/02 00:46:37;;;;;;;5.40;4.40;;;;;;;14.70;72.95;99064.59;1696021;84;21039;-63
2022/06/02 00:49:31;;;;;;;8.40;4.28;;;;;;;14.73;73.55;99069.14;1686878;84;21047;-63
2022/06/02 00:52:14;;;;;;;8.58;3.92;;;;;;;14.75;75.04;99084.92;1682984;83;21533;-62
2022/06/02 00:58:18;;;;;;;4.87;3.45;;;;;;;14.71;74.90;99080.34;1683794;85;21036;-62
2022/06/02 01:01:11;;;;;;;3.58;3.27;;;;;;;14.70;75.06;99079.98;1676794;84;21639;-63
2022/06/02 01:03:44;;;;;;;5.12;3.20;;;;;;;14.69;74.42;99085.39;1674652;84;21015;-65
2022/06/02 01:06:23;;;;;;;5.25;3.00;;;;;;;14.63;75.75;99076.12;1678833;84;21003;-63
2022/06/02 01:09:01;;;;;;;6.75;3.30;;;;;;;14.55;76.00;99084.61;1683510;84;21051;-63
2022/06/02 01:12:12;;;;;;;3.40;3.10;;;;;;;14.55;75.94;99078.00;1688355;84;21534;-63
2022/06/02 01:15:23;;;;;;;6.35;3.20;;;;;;;14.51;76.63;99072.55;1683758;84;21279;-62
2022/06/02 01:18:12;;;;;;;3.45;3.15;;;;;;;14.54;76.42;99073.64;1685776;84;21539;-63
2022/06/02 01:21:05;;;;;;;4.20;3.80;;;;;;;14.55;77.41;99070.52;1678812;84;21084;-63
2022/06/02 01:23:55;;;;;;;4.97;2.90;;;;;;;14.55;78.33;99052.86;1677761;84;21055;-65
2022/06/02 01:27:05;;;;;;;4.87;3.37;;;;;;;14.59;79.00;99051.69;1665904;84;21042;-62
2022/06/02 01:29:57;;;;;;;3.77;3.12;;;;;;;14.63;78.77;99052.79;1640383;85;21218;-64
2022/06/02 01:32:28;;;;;;;4.12;3.33;;;;;;;14.67;78.40;99053.75;1652135;85;21090;-63
2022/06/02 01:35:05;;;;;;;4.40;3.33;;;;;;;14.68;79.76;99049.28;1645082;85;21133;-63
2022/06/02 01:37:43;;;;;;;3.72;3.15;;;;;;;14.67;80.20;99056.88;1660647;85;21060;-62
2022/06/02 01:40:17;;;;;;;3.37;3.08;;;;;;;14.68;80.28;99063.39;1665653;85;21170;-62
2022/06/02 01:43:15;;;;;;;3.85;3.10;;;;;;;14.67;79.29;99072.76;1630341;85;21250;-63
2022/06/02 01:46:17;;;;;;;4.08;2.80;;;;;;;14.73;78.88;99089.48;1652074;85;21065;-63
2022/06/02 01:49:06;;;;;;;3.65;3.30;;;;;;;14.75;78.31;99116.22;1662738;85;21064;-64
2022/06/02 01:51:55;;;;;;;6.70;3.00;;;;;;;14.84;76.70;99143.78;1661910;86;21090;-63
2022/06/02 01:55:02;;;;;;;4.47;3.20;;;;;;;14.83;76.55;99147.89;1630998;86;21140;-62
2022/06/02 01:57:56;;;;;;;6.85;3.20;;;;;;;14.82;76.82;99149.67;1620568;87;21047;-64
2022/06/02 02:00:26;;;;;;;5.42;4.03;;;;;;;14.84;77.88;99175.55;1620773;87;21096;-61
2022/06/02 02:03:22;;;;;;;9.85;3.08;;;;;;;14.80;79.62;99200.56;1622100;87;21541;-63
2022/06/02 02:06:08;;;;;;;7.30;3.47;;;;;;;14.75;79.55;99210.19;1642858;84;21027;-62
2022/06/02 02:08:58;;;;;;;7.30;3.92;;;;;;;14.70;79.51;99236.16;1689780;84;21576;-62
2022/06/02 02:11:44;;;;;;;9.63;4.10;;;;;;;14.52;79.79;99245.41;1676595;85;21037;-60
2022/06/02 02:14:50;;;;;;;9.68;4.50;;;;;;;14.31;81.33;99239.36;1684941;84;21016;-61
2022/06/02 02:17:31;;;;;;;6.92;3.70;;;;;;;14.19;81.46;99203.23;1686977;84;21040;-63
2022/06/02 02:20:05;;;;;;;10.38;4.30;;;;;;;14.13;82.70;99191.27;1689088;84;21558;-64
2022/06/02 02:22:56;;;;;;;5.22;3.92;;;;;;;14.09;84.40;99181.03;1690427;83;21103;-64
2022/06/02 02:25:33;;;;;;;5.45;3.40;;;;;;;14.07;84.88;99179.81;1695657;84;21034;-64
2022/06/02 02:28:16;;;;;;;4.65;3.22;;;;;;;14.05;84.73;99191.47;1694959;84;21910;-63
2022/06/02 02:31:11;;;;;;;6.25;3.95;;;;;;;14.09;83.37;99201.70;1696726;84;21030;-62
2022/06/02 02:33:54;;;;;;;7.33;3.80;;;;;;;14.09;84.20;99192.93;1693579;84;21007;-64
2022/06/02 02:37:02;;;;;;;7.37;4.17;;;;;;;14.09;85.10;99179.22;1693945;84;21039;-62
2022/06/02 02:39:49;;;;;;;9.23;4.08;;;;;;;14.08;86.04;99163.46;1678620;84;21082;-62
2022/06/02 02:42:38;;;;;;;6.97;4.00;;;;;;;14.06;86.05;99170.66;1733630;78;21101;-64
2022/06/02 02:45:25;;;;;;;4.55;3.77;;;;;;;14.11;84.82;99194.50;1750103;81;22134;-62
2022/06/02 02:48:00;;;;;;;6.62;4.08;;;;;;;14.11;83.99;99193.66;1748811;82;21590;-63
2022/06/02 02:50:31;;;;;;;5.87;3.77;;;;;;;14.09;85.18;99204.83;1718771;82;21451;-63
2022/06/02 02:53:08;;;;;;;7.30;4.47;;;;;;;14.09;84.76;99196.41;1750014;81;20953;-61
2022/06/02 02:55:58;;;;;;;7.75;4.30;;;;;;;14.03;85.54;99187.61;1750327;82;21467;-61
2022/06/02 02:58:32;;;;;;;4.90;3.80;;;;;;;14.02;86.06;99183.26;1750239;82;21439;-59
2022/06/02 03:01:18;;;;;;;3.90;3.60;;;;;;;14.07;84.79;99174.52;1749957;80;20950;-61
2022/06/02 03:04:07;;;;;;;5.27;4.00;;;;;;;14.08;86.13;99172.27;1750045;82;21017;-61
2022/06/02 03:06:42;;;;;;;6.35;3.87;;;;;;;14.08;85.92;99166.97;1750224;81;20986;-60
2022/06/02 03:09:22;;;;;;;5.87;3.62;;;;;;;14.07;85.75;99174.52;1750110;82;20985;-61
2022/06/02 03:12:02;;;;;;;7.10;3.42;;;;;;;14.10;85.40;99165.06;1750226;81;20950;-61
2022/06/02 03:14:49;;;;;;;8.73;3.83;;;;;;;14.13;85.57;99167.46;1750368;82;21005;-62
2022/06/02 03:17:49;;;;;;;4.80;3.45;;;;;;;14.14;85.10;99163.88;1750079;82;21471;-61
2022/06/02 03:20:47;;;;;;;4.90;3.30;;;;;;;14.12;86.22;99167.11;1749827;82;21014;-63
2022/06/02 03:23:47;;;;;;;5.85;3.47;;;;;;;14.12;85.64;99164.47;1750162;82;21495;-61
2022/06/02 03:26:39;;;;;;;4.97;3.58;;;;;;;14.10;86.37;99161.09;1749949;82;21522;-62
2022/06/02 03:29:30;;;;;;;4.22;3.45;;;;;;;14.15;85.85;99162.94;1750194;81;21520;-63
2022/06/02 03:32:16;;;;;;;3.75;3.35;;;;;;;14.14;86.16;99149.33;1749521;82;20986;-60
2022/06/02 03:35:17;;;;;;;5.97;3.20;;;;;;;14.19;84.27;99152.50;1749782;82;21824;-60
2022/06/02 03:38:15;;;;;;;4.50;3.22;;;;;;;14.17;85.49;99156.19;1749880;82;21541;-62
2022/06/02 03:41:01;;;;;;;3.85;3.33;;;;;;;14.17;84.46;99157.05;1750367;81;21522;-64
2022/06/02 03:43:53;;;;;;;3.50;3.20;;;;;;;14.17;86.48;99157.51;1749279;82;21009;-65
2022/06/02 03:46:46;;;;;;;5.45;3.25;;;;;;;14.15;86.37;99161.61;1750336;81;20973;-63
2022/06/02 03:49:43;;;;;;;3.45;2.95;;;;;;;14.16;86.45;99158.00;1750351;82;21483;-63
2022/06/02 03:52:50;;;;;;;3.35;3.05;;;;;;;14.18;86.12;99165.34;1750463;81;20958;-62
2022/06/02 03:55:30;;;;;;;5.80;3.70;;;;;;;14.17;87.31;99166.31;1750187;81;21014;-62
2022/06/02 03:58:41;;;;;;;4.97;3.33;;;;;;;14.16;86.73;99163.77;1750319;82;21009;-61
2022/06/02 04:01:11;;;;;;;4.17;3.33;;;;;;;14.16;86.76;99162.45;1750275;81;21574;-64
2022/06/02 04:04:31;;;;;;;4.58;3.30;;;;;;;14.17;87.59;99158.38;1750426;82;21017;-63
2022/06/02 04:07:17;;;;;;;4.35;3.47;;;;;;;14.16;87.57;99148.73;1750300;81;20982;-62
2022/06/02 04:09:58;;;;;;;5.20;3.87;;;;;;;14.19;86.49;99135.30;1750417;81;20982;-62
2022/06/02 04:15:53;;;;;;;8.50;4.65;;;;;;;14.28;85.51;99129.83;1750351;82;21440;-62
2022/06/02 04:18:57;;;;;;;7.83;3.98;;;;;;;14.32;86.40;99139.70;1749953;82;20974;-62
2022/06/02 04:21:37;;;;;;;6.30;3.90;;;;;;;14.39;86.15;99143.10;1750340;82;21495;-63
2022/06/02 04:24:42;;;;;;;4.72;4.00;;;;;;;14.42;87.09;99137.22;1750224;81;21435;-64
2022/06/02 04:27:48;;;;;;;5.83;4.40;;;;;;;14.43;86.89;99141.08;1750357;81;21463;-62
2022/06/02 04:30:28;;;;;;;4.03;3.50;;;;;;;14.47;87.44;99139.05;1750241;81;21468;-61
2022/06/02 04:33:05;;;;;;;4.47;3.30;;;;;;;14.51;86.74;99138.69;1750311;82;21488;-62
2022/06/02 04:36:05;;;;;;;7.08;3.50;;;;;;;14.55;86.21;99149.89;1750382;81;20962;-63
2022/06/02 04:39:04;;;;;;;3.52;2.70;;;;;;;14.58;85.05;99154.52;1750352;82;20982;-63
2022/06/02 04:41:44;;;;;;;3.55;2.70;;;;;;;14.66;86.15;99165.88;1750225;81;21022;-61
2022/06/02 04:44:54;;;;;;;4.08;3.17;;;;;;;14.67;84.87;99174.66;1750285;82;21017;-62
2022/06/02 04:47:28;;;;;;;4.20;2.83;;;;;;;14.69;84.18;99179.35;1750280;81;21626;-61
2022/06/02 04:50:08;;;;;;;4.87;3.40;;;;;;;14.64;85.25;99184.14;1750126;81;21455;-61
2022/06/02 04:52:52;;;;;;;4.62;3.08;;;;;;;14.63;85.27;99186.44;1750240;82;20974;-62
2022/06/02 04:55:45;;;;;;;7.50;3.75;;;;;;;14.64;85.28;99185.45;1750131;81;21540;-62
2022/06/02 04:58:50;;;;;;;4.78;4.25;;;;;;;14.58;85.62;99183.63;1750507;82;21460;-61
2022/06/02 05:01:30;;;;;;;4.37;3.30;;;;;;;14.61;85.68;99199.77;1750163;81;21462;-63
2022/06/02 05:04:14;;;;;;;4.45;3.20;;;;;;;14.62;85.48;99203.26;1749448;82;20946;-62
2022/06/02 05:07:06;;;;;;;3.52;3.22;;;;;;;14.63;85.65;99208.44;1749877;82;20978;-62
2022/06/02 05:09:54;;;;;;;6.03;3.35;;;;;;;14.58;84.52;99210.09;1750335;81;21475;-61
2022/06/02 05:13:08;;;;;;;4.40;3.45;;;;;;;14.59;85.66;99206.98;1750358;81;21481;-62
2022/06/02 05:16:12;;;;;;;4.45;3.70;;;;;;;14.61;85.65;99220.08;1750270;81;21495;-61
2022/06/02 05:19:15;;;;;;;4.05;3.67;;;;;;;14.66;86.18;99229.85;1750270;81;21005;-61
2022/06/02 05:21:55;;;;;;;5.90;3.95;;;;;;;14.66;84.63;99239.12;1750156;82;21475;-61
2022/06/02 05:25:01;;;;;;;4.33;3.75;;;;;;;14.68;83.94;99244.69;1750278;81;21522;-62
2022/06/02 05:27:44;;;;;;;6.20;3.87;;;;;;;14.70;84.69;99244.09;1750127;82;21424;-61
2022/06/02 05:30:29;;;;;;;4.33;3.35;;;;;;;14.76;84.58;99270.59;1750334;81;21017;-61
2022/06/02 05:33:13;;;;;;;4.42;3.42;;;;;;;14.74;83.90;99271.18;1750294;82;20990;-62
2022/06/02 05:36:16;;;;;;;7.72;4.08;;;;;;;14.69;84.20;99279.93;1750277;82;20982;-61
2022/06/02 05:39:09;;;;;;;4.72;4.20;;;;;;;14.66;84.36;99286.30;1750199;82;20990;-61
2022/06/02 05:42:18;;;;;;;4.58;4.17;;;;;;;14.49;84.12;99300.69;1750011;81;20942;-61
2022/06/02 05:45:01;;;;;;;7.85;4.22;;;;;;;14.37;85.54;99292.30;1749948;81;21001;-62
2022/06/02 05:48:00;;;;;;;6.25;4.78;;;;;;;14.25;86.53;99295.84;1726146;82;21578;-62
2022/06/02 05:50:45;;;;;;;6.95;4.55;;;;;;;14.26;85.23;99307.63;1750241;82;21002;-62
2022/06/02 05:53:54;;;;;;;4.65;4.03;;;;;;;14.09;87.04;99314.56;1750254;81;21443;-62
2022/06/02 05:57:04;;;;;;;5.50;4.80;;;;;;;14.11;86.80;99312.17;1750359;81;20982;-61
2022/06/02 05:59:45;;;;;;;5.92;4.97;;;;;;;14.09;86.26;99312.76;1720708;82;20978;-62
2022/06/02 06:02:37;;;;;;;8.38;4.75;;;;;;;14.10;86.38;99315.78;1750096;81;20985;-60
2022/06/02 06:05:24;;;;;;;5.00;4.50;;;;;;;14.10;86.35;99319.75;1750204;82;21514;-62
2022/06/02 06:08:16;;;;;;;5.50;4.47;;;;;;;14.15;86.74;99321.61;1750394;81;20973;-62
2022/06/02 06:10:54;;;;;;;5.03;4.28;;;;;;;14.19;85.90;99301.08;1750309;81;20982;-62
2022/06/02 06:13:53;;;;;;;6.28;3.83;;;;;;;14.31;86.43;99307.30;1750369;81;21459;-62
2022/06/02 06:16:33;;;;;;;5.62;3.98;;;;;;;14.36;86.58;99323.20;1750178;82;21466;-62
2022/06/02 06:19:43;;;;;;;6.15;3.92;;;;;;;14.44;85.49;99337.21;1750206;81;21017;-62
2022/06/02 06:22:40;;;;;;;6.42;4.03;;;;;;;14.50;85.74;99339.92;1750133;81;20965;-62
2022/06/02 06:25:20;;;;;;;5.55;4.37;;;;;;;14.55;85.30;99337.77;1750255;81;21021;-62
2022/06/02 06:28:09;;;;;;;5.58;3.95;;;;;;;14.58;85.54;99356.13;1750163;81;20950;-62
2022/06/02 06:30:46;;;;;;;8.93;3.75;;;;;;;14.63;84.72;99354.48;1749349;81;21041;-61
2022/06/02 06:33:40;;;;;;;;;;;;;;;14.58;84.68;99360.09;1752246;82;21127;-62
2022/06/02 06:36:51;;;;;;;12.00;3.52;;;;;;;14.45;85.92;99367.18;1750108;81;20134;-61
2022/06/02 06:39:26;;;;;;;4.90;3.60;;;;;;;14.50;84.68;99373.84;1750219;82;20981;-61
2022/06/02 06:42:30;;;;;;;4.17;3.52;;;;;;;14.52;84.91;99379.87;1750117;82;20985;-61
2022/06/02 06:45:17;;;;;;;6.70;3.25;;;;;;;14.62;84.14;99371.31;1749990;81;21033;-62
2022/06/02 06:47:51;;;;;;;8.60;3.67;;;;;;;14.57;82.97;99392.34;1750539;81;20961;-61
2022/06/02 06:50:34;;;;;;;5.58;3.37;;;;;;;14.53;82.44;99388.16;1749484;82;21558;-61
2022/06/02 06:53:26;;;;;;;4.72;3.27;;;;;;;14.47;82.43;99385.95;1749876;81;21013;-61
2022/06/02 06:56:09;;;;;;;7.17;2.92;;;;;;;14.48;83.10;99390.30;1750167;82;20982;-61
2022/06/02 06:59:20;;;;;;;3.85;3.35;;;;;;;14.33;81.61;99408.06;1750136;81;21013;-62
2022/06/02 07:02:08;;;;;;;3.65;2.67;;;;;;;14.27;81.94;99412.47;1749430;82;21456;-62
2022/06/02 07:05:06;;;;;;;2.70;2.10;;;;;;;14.15;80.74;99417.27;1750091;81;21444;-62
2022/06/02 07:08:14;;;;;;;4.35;2.62;;;;;;;13.92;78.35;99449.25;1750341;82;20985;-62
2022/06/02 07:12:50;;;;;;;8.05;2.50;;;;;;;13.78;78.65;99446.19;1749752;81;21586;-62
2022/06/02 07:13:50;;;;;;;2.10;2.00;;;;;;;13.68;79.19;99442.44;1745665;82;20946;-61
2022/06/02 07:16:37;;;;;;;3.83;2.55;;;;;;;13.63;78.61;99437.48;1750236;81;21017;-62
2022/06/02 07:19:41;;;;;;;3.35;2.67;;;;;;;13.58;78.30;99444.84;1750410;82;20993;-62
2022/06/02 07:22:27;;;;;;;6.80;2.42;;;;;;;13.36;78.66;99436.99;1750186;81;20978;-62
2022/06/02 07:25:08;;;;;;;7.85;2.92;;;;;;;13.38;78.08;99432.45;1750247;82;20982;-63
2022/06/02 07:27:51;;;;;;;4.35;2.00;;;;;;;13.40;78.16;99439.80;1750054;82;20954;-62
2022/06/02 07:30:54;;;;;;;3.37;1.45;;;;;;;13.36;77.94;99429.07;1750346;82;21451;-62
2022/06/02 07:33:41;;;;;;;2.83;2.08;;;;;;;13.30;77.22;99422.84;1749904;82;21022;-62
2022/06/02 07:36:27;;;;;;;1.40;1.30;;;;;;;13.34;77.04;99411.16;1750391;81;20966;-63
2022/06/02 07:39:13;;;;;;;2.52;1.62;;;;;;;13.41;77.00;99403.20;1750614;81;21482;-63
2022/06/02 07:42:08;;;;;;;5.50;1.60;;;;;;;13.58;78.33;99411.83;1750549;81;21455;-63
2022/06/02 07:44:51;;;;;;;1.60;1.50;;;;;;;13.73;77.48;99420.05;1716964;82;20978;-61
2022/06/02 07:48:02;;;;;;;1.15;1.05;;;;;;;13.93;78.14;99419.20;1749821;82;21447;-62
2022/06/02 07:50:42;;;;;;;1.22;1.12;;;;;;;14.05;75.08;99417.54;1748998;81;21498;-62
2022/06/02 07:53:17;;;;;;;1.62;1.52;;;;;;;14.23;75.39;99410.16;1737476;82;21017;-62
2022/06/02 07:56:06;;;;;;;1.95;1.17;;;;;;;14.46;75.62;99397.51;1750390;82;21022;-62
2022/06/02 07:58:55;;;;;;;5.05;1.25;;;;;;;14.58;75.29;99397.14;1750154;81;21006;-61
2022/06/02 08:01:43;;;;;;;1.60;1.02;;;;;;;14.66;72.05;99383.36;1702896;82;20974;-62
2022/06/02 08:04:20;;;;;;;1.35;1.12;;;;;;;14.80;71.43;99381.91;1750246;81;20978;-61
2022/06/02 08:06:54;;;;;;;1.98;1.20;;;;;;;14.96;72.82;99383.83;1735881;82;20981;-61
2022/06/02 08:09:47;;;;;;;2.02;0.78;;;;;;;14.96;71.15;99381.66;1750120;81;21006;-61
2022/06/02 08:12:30;;;;;;;5.83;1.40;;;;;;;14.94;70.09;99397.66;1702463;82;21114;-63
2022/06/02 08:15:16;;;;;;;1.67;1.02;;;;;;;15.00;69.30;99398.17;1748839;82;20961;-62
2022/06/02 08:18:20;;;;;;;2.77;1.00;;;;;;;15.08;69.70;99396.67;1750267;81;20989;-62
2022/06/02 08:21:16;;;;;;;3.12;1.10;;;;;;;15.23;70.02;99395.20;1750245;82;20962;-62
2022/06/02 08:23:56;;;;;;;3.58;2.10;;;;;;;15.35;70.26;99391.17;1750269;81;20970;-62
2022/06/02 08:26:56;;;;;;;2.10;1.10;;;;;;;15.33;68.39;99393.55;1748610;82;20974;-62
2022/06/02 08:29:31;;;;;;;3.85;1.15;;;;;;;15.50;69.41;99396.30;1749074;82;21014;-63
2022/06/02 08:32:26;;;;;;;3.62;1.02;;;;;;;15.76;68.09;99394.38;1750150;81;20983;-63
2022/06/02 08:35:12;;;;;;;3.62;0.93;;;;;;;16.02;67.53;99402.16;1750399;82;20986;-64
2022/06/02 08:38:01;;;;;;;4.47;0.90;;;;;;;16.18;63.87;99397.86;1750458;82;21013;-62
2022/06/02 08:41:33;;;;;;;0.90;0.85;;;;;;;16.35;64.08;99401.36;1748833;82;20978;-63
2022/06/02 08:44:42;;;;;;;1.27;0.80;;;;;;;16.46;62.46;99405.38;1749069;82;21006;-62
2022/06/02 08:47:37;;;;;;;2.50;0.80;;;;;;;16.42;59.54;99399.92;1749262;82;21073;-64
2022/06/02 08:50:28;;;;;;;1.75;0.70;;;;;;;16.61;61.63;99412.63;1748327;82;21029;-62
2022/06/02 08:53:30;;;;;;;0.80;0.80;;;;;;;16.64;57.98;99411.52;1749214;81;21570;-62
2022/06/02 08:56:23;;;;;;;0.93;0.72;;;;;;;16.72;58.12;99414.44;1750227;82;21498;-63
2022/06/02 08:59:32;;;;;;;0.62;0.62;;;;;;;17.02;58.96;99410.33;1750233;81;20958;-62
2022/06/02 09:02:44;;;;;;;1.65;0.70;;;;;;;17.20;56.74;99404.02;1750262;82;21431;-63
2022/06/02 09:05:36;;;;;;;0.98;0.88;;;;;;;17.49;56.19;99421.57;1749919;82;21021;-62
2022/06/02 09:08:10;;;;;;;3.00;0.75;;;;;;;17.56;56.49;99411.28;1750309;81;20951;-62
2022/06/02 09:11:33;;;;;;;0.70;0.70;;;;;;;17.70;55.80;99416.77;1750138;81;21462;-62
2022/06/02 09:14:19;;;;;;;4.22;0.80;;;;;;;17.86;53.85;99424.36;1750270;81;20998;-62
2022/06/02 09:17:27;;;;;;;1.35;0.75;;;;;;;18.06;54.69;99416.88;1750648;81;21495;-62
2022/06/02 09:20:16;;;;;;;0.88;0.50;;;;;;;18.28;53.92;99421.70;1720587;82;20977;-61
2022/06/02 09:23:11;;;;;;;1.42;0.70;;;;;;;18.47;51.21;99422.32;1750262;81;20974;-63
2022/06/02 09:26:02;;;;;;;2.45;0.60;;;;;;;18.69;49.79;99424.80;1684559;82;21646;-62
2022/06/02 09:29:09;;;;;;;3.80;0.60;;;;;;;19.05;50.95;99437.74;1709308;84;21485;-61
2022/06/02 09:31:46;;;;;;;1.10;0.60;;;;;;;19.34;49.04;99435.14;1709554;83;21494;-61
2022/06/02 09:34:41;;;;;;;0.88;0.60;;;;;;;19.81;49.37;99438.03;1708552;84;21001;-62
2022/06/02 09:37:43;;;;;;;0.88;0.57;;;;;;;20.30;51.62;99429.95;1709557;84;20973;-62
2022/06/02 09:40:29;;;;;;;6.33;1.20;;;;;;;20.75;49.00;99439.98;1709511;84;21005;-62
2022/06/02 09:43:34;;;;;;;2.30;1.20;;;;;;;21.39;45.51;99442.75;1709606;84;21021;-61
2022/06/02 09:46:12;;;;;;;0.70;0.70;;;;;;;21.87;48.11;99438.92;1709555;84;21013;-62
2022/06/02 09:49:17;;;;;;;0.88;0.88;;;;;;;22.08;47.86;99460.00;1708475;83;21016;-63
2022/06/02 09:52:20;;;;;;;1.40;0.80;;;;;;;21.62;44.96;99460.09;1709676;84;21052;-67
2022/06/02 09:55:00;;;;;;;4.92;0.80;;;;;;;21.87;44.27;99459.50;1708787;84;21017;-67
2022/06/02 09:58:11;;;;;;;1.45;0.80;;;;;;;21.94;43.39;99466.77;1709164;84;21009;-67
2022/06/02 10:00:58;;;;;;;1.15;1.02;;;;;;;21.78;41.56;99467.44;1701962;83;21048;-66
2022/06/02 10:03:44;;;;;;;;;;;;;;;21.52;44.02;99465.16;1712049;84;21021;-66
2022/06/02 10:06:51;;;;;;;1.67;1.00;;;;;;;21.39;43.83;99462.81;1709823;83;20200;-66
2022/06/02 10:10:01;;;;;;;1.20;1.10;;;;;;;21.77;42.71;99472.94;1708946;84;20997;-70
2022/06/02 10:13:01;;;;;;;2.92;1.07;;;;;;;21.62;41.96;99479.33;1709573;84;21013;-67
2022/06/02 10:16:07;;;;;;;1.72;0.80;;;;;;;21.90;39.37;99472.56;1708677;83;21045;-65
2022/06/02 10:19:29;;;;;;;2.17;1.07;;;;;;;22.32;41.48;99473.27;1707437;84;21025;-66
2022/06/02 10:22:50;;;;;;;0.90;0.90;;;;;;;22.86;41.55;99473.13;1709456;84;21017;-66
2022/06/02 10:25:43;;;;;;;2.50;1.20;;;;;;;23.18;40.42;99477.33;1709504;84;21561;-67
2022/06/02 10:28:17;;;;;;;2.25;1.00;;;;;;;23.20;40.85;99475.83;1709519;84;21521;-66
2022/06/02 10:31:22;;;;;;;1.82;1.05;;;;;;;23.46;40.40;99480.27;1709199;84;20962;-66
2022/06/02 10:34:26;;;;;;;7.92;1.30;;;;;;;23.82;37.68;99470.66;1709445;84;21060;-67
2022/06/02 10:37:13;;;;;;;2.10;1.20;;;;;;;24.30;35.71;99474.35;1709263;84;21557;-65
2022/06/02 10:40:04;;;;;;;1.05;1.00;;;;;;;25.17;35.24;99473.16;1709615;84;21545;-65
2022/06/02 10:43:02;;;;;;;2.35;1.12;;;;;;;25.57;33.35;99490.67;1709492;84;21509;-67
2022/06/02 10:45:39;;;;;;;1.57;1.47;;;;;;;25.63;31.57;99473.31;1705376;84;21471;-66
2022/06/02 10:48:45;;;;;;;2.67;1.20;;;;;;;25.59;34.61;99496.20;1709501;84;20970;-64
2022/06/02 10:51:53;;;;;;;3.52;1.30;;;;;;;24.15;35.53;99484.42;1708520;84;21505;-64
2022/06/02 10:55:12;;;;;;;1.60;1.40;;;;;;;24.06;36.46;99491.32;1709562;83;21005;-66
2022/06/02 10:58:17;;;;;;;2.75;1.32;;;;;;;24.70;35.15;99490.13;1720078;82;20987;-65
2022/06/02 11:01:36;;;;;;;1.32;1.20;;;;;;;25.10;35.63;99485.63;1744014;82;21016;-65
2022/06/02 11:04:48;;;;;;;1.50;1.40;;;;;;;25.76;34.80;99481.28;1745274;82;21044;-65
2022/06/02 11:07:42;;;;;;;2.35;1.80;;;;;;;25.82;33.94;99469.30;1745598;82;20973;-65
2022/06/02 11:10:47;;;;;;;3.52;1.10;;;;;;;25.86;34.24;99468.43;1745470;82;21016;-65
2022/06/02 11:13:45;;;;;;;1.40;0.93;;;;;;;26.55;33.21;99480.50;1745508;82;21036;-64
2022/06/02 11:16:17;;;;;;;1.20;1.10;;;;;;;26.75;31.11;99473.27;1745173;82;21024;-64
2022/06/02 11:19:09;;;;;;;1.32;1.02;;;;;;;26.56;31.22;99477.28;1741776;81;21482;-66
2022/06/02 11:22:18;;;;;;;1.72;1.00;;;;;;;25.83;32.14;99476.86;1742241;82;21029;-67
2022/06/02 11:25:09;;;;;;;1.22;1.22;;;;;;;26.34;32.21;99476.32;1738859;82;21049;-67
2022/06/02 11:28:14;;;;;;;1.47;1.15;;;;;;;26.30;30.46;99480.41;1738467;82;21025;-67
2022/06/02 11:31:14;;;;;;;1.10;0.90;;;;;;;26.82;30.96;99483.64;1739070;82;21001;-64
2022/06/02 11:33:54;;;;;;;1.00;1.00;;;;;;;27.41;29.84;99489.52;1739075;82;21629;-67
2022/06/02 11:36:48;;;;;;;3.22;0.90;;;;;;;26.88;29.92;99489.63;1738418;82;21855;-66
2022/06/02 11:39:51;;;;;;;1.70;0.90;;;;;;;26.16;29.87;99488.28;1739074;82;21499;-64
2022/06/02 11:42:27;;;;;;;1.17;0.85;;;;;;;25.43;30.00;99482.83;1719454;82;21028;-66
2022/06/02 11:45:06;;;;;;;;;;;;;;;25.53;30.55;99488.84;1741120;82;21501;-63
2022/06/02 11:48:14;;;;;;;2.75;1.00;;;;;;;24.85;31.37;99482.18;1739754;81;20115;-63
2022/06/02 11:51:19;;;;;;;2.42;1.37;;;;;;;24.59;31.47;99487.80;1739093;82;20997;-64
2022/06/02 11:54:11;;;;;;;1.40;1.30;;;;;;;24.59;32.20;99492.66;1738874;82;21021;-62
2022/06/02 11:57:18;;;;;;;1.37;1.25;;;;;;;24.36;32.94;99485.79;1737656;81;20990;-62
2022/06/02 12:00:06;;;;;;;;;;;;;;;23.97;32.70;99492.33;1740795;82;20997;-63
2022/06/02 12:03:29;;;;;;;1.17;1.10;;;;;;;22.93;33.87;99501.81;1739090;82;20388;-66
2022/06/02 12:06:24;;;;;;;2.50;1.30;;;;;;;22.92;34.88;99489.91;1738984;82;21009;-63
2022/06/02 12:09:19;;;;;;;0.98;0.95;;;;;;;23.63;34.78;99481.15;1738043;82;21052;-65
2022/06/02 12:12:28;;;;;;;1.70;1.07;;;;;;;23.57;34.41;99479.45;1738539;82;21872;-65
2022/06/02 12:15:28;;;;;;;1.77;0.93;;;;;;;23.49;33.41;99500.09;1738836;82;20997;-66
2022/06/02 12:18:10;;;;;;;3.35;1.00;;;;;;;23.51;32.66;99498.08;1739032;82;20958;-68
2022/06/02 12:21:18;;;;;;;2.90;0.70;;;;;;;23.56;31.83;99504.63;1660087;86;21497;-66
2022/06/02 12:24:13;;;;;;;0.80;0.80;;;;;;;23.51;30.78;99488.17;1682142;85;21023;-65
2022/06/02 12:27:23;;;;;;;1.95;1.15;;;;;;;23.68;30.98;99479.64;1682929;85;21495;-63
2022/06/02 12:30:10;;;;;;;3.37;0.98;;;;;;;23.74;31.29;99485.72;1683107;85;21128;-62
2022/06/02 12:32:51;;;;;;;2.62;0.80;;;;;;;23.60;31.11;99485.52;1682611;85;21012;-63
2022/06/02 12:35:51;;;;;;;1.25;0.70;;;;;;;23.28;32.55;99480.38;1683011;85;20995;-62
2022/06/02 12:38:25;;;;;;;5.37;1.07;;;;;;;23.03;32.43;99486.11;1683084;85;21532;-61
2022/06/02 12:41:30;;;;;;;1.87;1.00;;;;;;;23.05;31.77;99489.50;1682636;85;21008;-62
2022/06/02 12:44:29;;;;;;;1.45;0.80;;;;;;;22.55;31.53;99496.39;1682955;85;21008;-61
2022/06/02 12:47:23;;;;;;;1.77;0.88;;;;;;;22.13;30.93;99484.99;1681848;85;21008;-63
2022/06/02 12:50:27;;;;;;;3.90;3.52;;;;;;;22.08;32.51;99489.45;1682476;85;21059;-63
2022/06/02 12:53:39;;;;;;;1.10;1.00;;;;;;;22.20;33.08;99497.60;1682974;85;21023;-63
2022/06/02 12:56:52;;;;;;;3.87;1.60;;;;;;;22.05;33.50;99494.64;1683109;85;21472;-63
2022/06/02 13:00:04;;;;;;;1.10;1.00;;;;;;;21.73;33.37;99488.46;1713805;82;20985;-62
2022/06/02 13:03:05;;;;;;;2.15;1.00;;;;;;;21.50;34.50;99495.23;1720427;83;21036;-63
2022/06/02 13:06:03;;;;;;;4.55;0.80;;;;;;;21.54;34.49;99501.48;1720379;82;21004;-64
2022/06/02 13:08:56;;;;;;;1.00;0.90;;;;;;;21.58;34.25;99503.38;1720541;82;21034;-64
2022/06/02 13:11:37;;;;;;;1.22;1.10;;;;;;;21.57;34.25;99501.67;1720315;83;20997;-63
2022/06/02 13:14:44;;;;;;;3.17;1.10;;;;;;;21.27;35.17;99502.31;1720271;83;21048;-65
2022/06/02 13:17:48;;;;;;;2.05;1.15;;;;;;;21.39;35.08;99497.59;1720631;82;21017;-65
2022/06/02 13:20:37;;;;;;;3.60;0.88;;;;;;;21.16;34.83;99510.53;1719291;83;21001;-67
2022/06/02 13:23:47;;;;;;;2.37;0.80;;;;;;;21.05;35.83;99504.38;1718786;82;20985;-63
2022/06/02 13:26:28;;;;;;;1.05;0.90;;;;;;;21.20;35.21;99503.89;1719910;83;21009;-65
2022/06/02 13:29:30;;;;;;;3.10;1.00;;;;;;;20.94;35.51;99508.57;1719655;83;21133;-65
2022/06/02 13:32:16;;;;;;;2.25;0.95;;;;;;;20.82;35.28;99507.06;1719936;83;21475;-65
2022/06/02 13:35:11;;;;;;;1.90;1.10;;;;;;;20.80;35.69;99505.03;1706818;83;21181;-64
2022/06/02 13:38:11;;;;;;;1.30;1.20;;;;;;;20.67;35.78;99512.86;1719112;83;21020;-63
2022/06/02 13:41:21;;;;;;;3.92;1.20;;;;;;;20.68;35.89;99509.22;1719989;82;21048;-64